Time;durP1;ratioP1;P1;durP2;ratioP2;P2;SDS_P1;SDS_P2;PMS_P1;PMS_P2;Temp;Humidity;BMP_temperature;BMP_pressure;BME280_temperature;BME280_humidity;BME280_pressure;Samples;Min_cycle;Max_cycle;Signal;HPM_P1;HPM_P2
2023/03/28 00:00:17;;;;;;;1.60;1.50;;;;;;;3.08;82.88;93575.59;5063256;28;20208;-78
2023/03/28 00:02:44;;;;;;;1.77;1.33;;;;;;;3.06;82.61;93585.81;5053798;28;20757;-77
2023/03/28 00:05:12;;;;;;;1.75;1.60;;;;;;;3.10;82.96;93576.88;5054067;28;20625;-78
2023/03/28 00:07:39;;;;;;;1.80;1.52;;;;;;;3.01;82.16;93604.63;5055647;28;20211;-78
2023/03/28 00:10:07;;;;;;;2.90;1.58;;;;;;;3.04;81.78;93620.88;5047710;28;20374;-78
2023/03/28 00:12:36;;;;;;;1.98;1.50;;;;;;;2.98;81.04;93634.69;5059857;28;20199;-77
2023/03/28 00:15:04;;;;;;;1.10;0.95;;;;;;;2.87;82.21;93650.16;5054225;28;20203;-77
2023/03/28 00:17:30;;;;;;;1.63;1.25;;;;;;;2.78;82.33;93638.63;5054872;28;20388;-79
2023/03/28 00:19:58;;;;;;;2.08;1.65;;;;;;;2.74;82.63;93659.81;5060440;28;20288;-79
2023/03/28 00:22:24;;;;;;;2.30;1.52;;;;;;;2.66;82.57;93655.22;5060412;28;20222;-79
2023/03/28 00:24:52;;;;;;;1.35;1.20;;;;;;;2.60;82.54;93660.97;5067782;28;20207;-79
2023/03/28 00:27:19;;;;;;;1.33;1.23;;;;;;;2.45;82.77;93656.75;5067484;28;20206;-78
2023/03/28 00:29:47;;;;;;;1.98;1.40;;;;;;;2.44;82.39;93673.88;5056945;28;20206;-78
2023/03/28 00:32:14;;;;;;;1.90;1.40;;;;;;;2.48;83.15;93690.88;5053846;28;20684;-79
2023/03/28 00:34:40;;;;;;;1.90;1.80;;;;;;;2.53;82.73;93698.81;5060781;28;20241;-78
2023/03/28 00:37:09;;;;;;;2.03;1.83;;;;;;;2.41;82.81;93690.50;5060406;28;20709;-79
2023/03/28 00:39:36;;;;;;;2.17;1.98;;;;;;;2.36;82.92;93698.63;5054608;28;20242;-77
2023/03/28 00:42:03;;;;;;;2.42;2.22;;;;;;;2.37;82.99;93702.88;5066455;28;20658;-78
2023/03/28 00:44:45;;;;;;;2.15;1.95;;;;;;;2.29;82.71;93698.25;5047127;28;20223;-75
2023/03/28 00:47:24;;;;;;;1.75;1.60;;;;;;;2.14;82.59;93694.78;5061143;28;20199;-79
2023/03/28 00:49:52;;;;;;;2.85;2.22;;;;;;;2.05;83.15;93698.47;5058327;28;20210;-78
2023/03/28 00:52:23;;;;;;;2.65;2.17;;;;;;;2.05;83.53;93715.25;5054001;28;20260;-78
2023/03/28 00:54:51;;;;;;;2.85;2.58;;;;;;;1.99;84.27;93700.44;5054780;28;20199;-80
2023/03/28 00:57:18;;;;;;;2.55;2.08;;;;;;;1.96;83.12;93711.69;5060603;28;20227;-78
2023/03/28 00:59:45;;;;;;;2.97;2.55;;;;;;;1.83;83.30;93723.16;5059512;28;20279;-81
2023/03/28 01:02:12;;;;;;;3.25;2.40;;;;;;;1.75;83.46;93738.00;5053830;28;20230;-77
2023/03/28 01:04:48;;;;;;;2.92;2.63;;;;;;;1.83;83.75;93749.84;5054370;28;20199;-79
2023/03/28 01:07:17;;;;;;;4.75;2.70;;;;;;;1.90;83.18;93739.59;5054415;28;20203;-79
2023/03/28 01:09:44;;;;;;;3.03;2.33;;;;;;;1.73;82.82;93760.72;5052013;28;20209;-81
2023/03/28 01:12:13;;;;;;;3.22;2.53;;;;;;;1.76;82.29;93754.81;5065435;28;20288;-78
2023/03/28 01:14:40;;;;;;;2.97;2.17;;;;;;;1.70;81.73;93756.75;5053144;28;20196;-78
2023/03/28 01:17:07;;;;;;;2.55;2.33;;;;;;;1.73;82.31;93764.19;5058818;28;20261;-80
2023/03/28 01:19:50;;;;;;;2.20;1.92;;;;;;;1.67;81.22;93764.56;5065956;28;20237;-74
2023/03/28 01:22:46;;;;;;;3.28;2.88;;;;;;;1.82;81.41;93784.84;5060119;28;20227;-76
2023/03/28 01:25:37;;;;;;;4.05;1.80;;;;;;;1.68;81.03;93790.16;5060092;28;20675;-76
2023/03/28 01:28:10;;;;;;;2.28;2.08;;;;;;;1.62;80.83;93797.47;5057342;28;20739;-76
2023/03/28 01:31:13;;;;;;;2.55;2.10;;;;;;;1.60;81.16;93788.16;5066965;28;20199;-80
2023/03/28 01:34:16;;;;;;;3.03;2.15;;;;;;;1.63;80.71;93776.91;5062691;28;20704;-78
2023/03/28 01:37:13;;;;;;;3.28;2.72;;;;;;;1.70;81.36;93782.66;5059308;28;20231;-75
2023/03/28 01:39:59;;;;;;;3.17;2.88;;;;;;;1.60;80.59;93777.50;5056148;28;20212;-75
2023/03/28 01:42:32;;;;;;;3.80;2.60;;;;;;;1.59;79.78;93778.56;5057214;28;20209;-76
2023/03/28 01:45:13;;;;;;;2.58;2.38;;;;;;;1.63;80.02;93776.91;5059289;28;20223;-77
2023/03/28 01:47:43;;;;;;;3.20;2.45;;;;;;;1.66;79.88;93776.31;5056258;28;20279;-77
2023/03/28 01:50:17;;;;;;;3.05;2.42;;;;;;;1.61;79.96;93773.75;5068020;28;20207;-79
2023/03/28 01:52:54;;;;;;;2.85;2.33;;;;;;;1.60;79.73;93788.97;5056120;28;20226;-75
2023/03/28 01:55:29;;;;;;;2.10;1.90;;;;;;;1.58;80.16;93796.47;5053792;28;20207;-81
2023/03/28 01:58:02;;;;;;;2.47;2.00;;;;;;;1.55;79.17;93791.72;5061189;28;20822;-76
2023/03/28 02:00:34;;;;;;;2.30;2.10;;;;;;;1.52;79.18;93796.81;5051079;28;20206;-79
2023/03/28 02:03:05;;;;;;;3.03;2.10;;;;;;;1.42;80.00;93798.56;5062361;28;20272;-79
2023/03/28 02:05:34;;;;;;;3.53;2.38;;;;;;;1.43;80.29;93799.38;5057071;28;20203;-82
2023/03/28 02:08:07;;;;;;;3.20;2.60;;;;;;;1.45;80.37;93796.41;5056462;28;20211;-78
2023/03/28 02:10:37;;;;;;;3.72;3.08;;;;;;;1.42;80.34;93771.91;5062154;28;20277;-76
2023/03/28 02:13:08;;;;;;;3.03;2.60;;;;;;;1.43;80.94;93784.16;5063647;28;20207;-77
2023/03/28 02:15:34;;;;;;;3.55;2.85;;;;;;;1.33;81.00;93789.66;5049989;28;20254;-76
2023/03/28 02:18:07;;;;;;;3.97;3.30;;;;;;;1.39;81.33;93788.47;5063017;28;20251;-77
2023/03/28 02:20:36;;;;;;;5.05;3.88;;;;;;;1.42;81.43;93755.88;5059959;28;20210;-75
2023/03/28 02:23:09;;;;;;;7.65;3.42;;;;;;;1.48;81.99;93764.63;5057379;28;20599;-78
2023/03/28 02:25:37;;;;;;;4.68;3.05;;;;;;;1.38;81.60;93762.88;5070172;28;20199;-75
2023/03/28 02:28:07;;;;;;;3.00;2.70;;;;;;;1.38;81.63;93760.22;5050687;28;20544;-78
2023/03/28 02:30:35;;;;;;;2.70;1.75;;;;;;;1.40;81.43;93767.94;5064932;28;20201;-76
2023/03/28 02:33:04;;;;;;;3.90;2.78;;;;;;;1.42;81.82;93761.22;5049769;28;20200;-78
2023/03/28 02:35:41;;;;;;;3.72;2.25;;;;;;;1.51;80.59;93776.56;5062675;28;20195;-78
2023/03/28 02:38:18;;;;;;;4.78;3.47;;;;;;;1.57;81.07;93772.75;5058154;28;20235;-76
2023/03/28 02:40:54;;;;;;;3.45;2.40;;;;;;;1.49;80.65;93765.41;5055976;28;20279;-79
2023/03/28 02:43:56;;;;;;;2.53;2.30;;;;;;;1.59;81.10;93786.59;5069928;28;20222;-83
2023/03/28 02:46:29;;;;;;;2.50;2.28;;;;;;;1.63;80.93;93771.59;5058407;28;20346;-81
2023/03/28 02:49:26;;;;;;;3.35;2.85;;;;;;;1.67;80.00;93767.22;5065602;28;20204;-82
2023/03/28 02:52:03;;;;;;;3.15;2.50;;;;;;;1.67;80.10;93769.88;5052999;28;20211;-80
2023/03/28 02:54:37;;;;;;;3.03;2.67;;;;;;;1.69;80.38;93781.06;5055405;28;20379;-76
2023/03/28 02:57:09;;;;;;;3.53;2.80;;;;;;;1.55;80.42;93758.88;5056652;28;20265;-76
2023/03/28 02:59:42;;;;;;;2.72;2.30;;;;;;;1.62;80.68;93772.66;5058097;28;20207;-76
2023/03/28 03:02:10;;;;;;;3.38;2.80;;;;;;;1.60;81.32;93772.16;5061364;28;20578;-76
2023/03/28 03:04:37;;;;;;;1.77;1.67;;;;;;;1.71;79.57;93773.56;5062341;28;20213;-78
2023/03/28 03:07:04;;;;;;;1.73;1.63;;;;;;;1.73;78.05;93776.75;5049320;28;20720;-76
2023/03/28 03:09:32;;;;;;;2.33;1.70;;;;;;;1.78;77.55;93773.97;5062686;28;20242;-80
2023/03/28 03:11:58;;;;;;;1.83;1.40;;;;;;;1.78;77.79;93779.31;5062074;28;20204;-82
2023/03/28 03:14:26;;;;;;;1.25;1.15;;;;;;;1.84;77.46;93780.03;5062317;28;20276;-77
2023/03/28 03:16:53;;;;;;;1.52;1.33;;;;;;;1.72;77.17;93764.47;5056500;28;20198;-79
2023/03/28 03:19:20;;;;;;;3.78;1.88;;;;;;;1.86;77.37;93781.31;5055037;28;20738;-76
2023/03/28 03:21:48;;;;;;;2.38;1.90;;;;;;;1.89;77.83;93779.94;5061188;28;20297;-76
2023/03/28 03:24:15;;;;;;;1.98;1.77;;;;;;;1.57;78.84;93773.53;5049055;28;20204;-78
2023/03/28 03:26:43;;;;;;;2.40;2.20;;;;;;;1.54;79.75;93778.66;5054595;28;20212;-76
2023/03/28 03:29:10;;;;;;;2.38;1.88;;;;;;;1.43;80.03;93788.69;5061152;28;20363;-77
2023/03/28 03:31:37;;;;;;;2.70;2.13;;;;;;;1.19;79.73;93794.16;5068360;28;20203;-79
2023/03/28 03:34:04;;;;;;;4.22;2.65;;;;;;;1.33;80.23;93807.53;5055051;28;20257;-76
2023/03/28 03:36:30;;;;;;;3.05;1.85;;;;;;;1.28;79.49;93808.41;5059301;28;20196;-74
2023/03/28 03:38:57;;;;;;;2.40;2.00;;;;;;;1.27;80.18;93812.16;5061759;28;20229;-79
2023/03/28 03:41:24;;;;;;;2.75;2.38;;;;;;;1.20;80.98;93801.06;5056870;28;20748;-79
2023/03/28 03:43:52;;;;;;;2.80;2.20;;;;;;;1.21;80.71;93821.31;5054268;28;20670;-77
2023/03/28 03:46:19;;;;;;;2.88;1.73;;;;;;;1.13;80.83;93811.28;5058966;28;20204;-80
2023/03/28 03:48:46;;;;;;;1.80;1.45;;;;;;;1.05;80.65;93855.41;5061479;28;20199;-77
2023/03/28 03:51:12;;;;;;;3.67;2.35;;;;;;;0.99;79.81;93829.88;5057400;28;20817;-78
2023/03/28 03:53:39;;;;;;;1.77;1.67;;;;;;;1.01;79.35;93819.72;5065752;28;20260;-81
2023/03/28 03:56:07;;;;;;;2.30;2.10;;;;;;;1.07;79.46;93847.13;5057466;28;20295;-76
2023/03/28 03:58:34;;;;;;;1.98;1.60;;;;;;;1.02;79.55;93863.19;5051937;28;20257;-79
2023/03/28 04:01:03;;;;;;;2.13;1.38;;;;;;;0.97;80.10;93876.56;5055775;28;20208;-81
2023/03/28 04:03:30;;;;;;;3.10;2.38;;;;;;;1.10;80.43;93867.06;5061245;28;20290;-78
2023/03/28 04:05:56;;;;;;;2.75;1.95;;;;;;;1.17;79.66;93865.66;5057588;28;20199;-76
2023/03/28 04:08:24;;;;;;;1.60;1.15;;;;;;;1.18;78.16;93867.22;5051516;28;20281;-79
2023/03/28 04:10:50;;;;;;;3.80;2.08;;;;;;;1.24;77.48;93860.72;5047931;28;20208;-76
2023/03/28 04:13:17;;;;;;;1.85;1.52;;;;;;;1.25;77.74;93864.97;5060876;28;20739;-78
2023/03/28 04:15:46;;;;;;;2.95;1.30;;;;;;;1.24;76.72;93874.06;5058176;28;20268;-73
2023/03/28 04:18:16;;;;;;;2.05;1.75;;;;;;;1.30;76.87;93880.94;5053643;28;20245;-72
2023/03/28 04:20:46;;;;;;;1.67;1.35;;;;;;;1.18;75.90;93880.56;5057031;28;20604;-81
2023/03/28 04:23:13;;;;;;;1.75;1.60;;;;;;;1.22;76.44;93889.59;5059965;28;20196;-81
2023/03/28 04:25:40;;;;;;;2.58;1.80;;;;;;;1.23;75.95;93882.38;5060619;28;20202;-81
2023/03/28 04:28:08;;;;;;;2.35;1.45;;;;;;;1.35;75.36;93888.88;5053566;28;20226;-75
2023/03/28 04:30:35;;;;;;;1.52;1.40;;;;;;;1.41;75.22;93893.03;5061737;28;20191;-81
2023/03/28 04:33:03;;;;;;;1.98;1.77;;;;;;;1.52;75.07;93907.03;5064516;28;20195;-74
2023/03/28 04:35:34;;;;;;;2.28;1.92;;;;;;;1.46;74.98;93910.06;5052630;28;20199;-75
2023/03/28 04:38:01;;;;;;;3.55;2.00;;;;;;;1.47;74.84;93907.13;5059256;28;20200;-77
2023/03/28 04:40:28;;;;;;;3.42;2.03;;;;;;;1.51;73.95;93924.13;5057675;28;20203;-78
2023/03/28 04:42:55;;;;;;;2.25;1.95;;;;;;;1.60;73.53;93932.28;5054690;28;20219;-74
2023/03/28 04:45:22;;;;;;;1.58;1.48;;;;;;;1.45;72.49;93951.16;5052063;28;20265;-76
2023/03/28 04:47:49;;;;;;;2.15;1.77;;;;;;;1.40;73.04;93955.47;5054090;28;20242;-79
2023/03/28 04:50:16;;;;;;;2.67;2.17;;;;;;;1.39;72.42;93953.91;5056394;28;20511;-73
2023/03/28 04:52:44;;;;;;;3.53;2.53;;;;;;;1.39;72.53;93964.56;5054570;28;20726;-77
2023/03/28 04:55:11;;;;;;;3.60;1.80;;;;;;;1.43;72.37;93962.13;5053672;28;20199;-77
2023/03/28 04:57:38;;;;;;;3.08;2.10;;;;;;;1.40;72.04;93979.50;5058053;28;20595;-79
2023/03/28 05:00:08;;;;;;;2.60;2.30;;;;;;;1.43;72.34;93989.59;5060307;28;20681;-79
2023/03/28 05:02:34;;;;;;;3.97;3.08;;;;;;;1.46;71.56;93968.78;5051669;28;20207;-77
2023/03/28 05:05:01;;;;;;;3.33;2.65;;;;;;;1.28;70.64;93978.31;5053378;28;20737;-76
2023/03/28 05:07:28;;;;;;;4.85;3.80;;;;;;;1.17;70.96;93983.00;5057200;28;20662;-79
2023/03/28 05:09:57;;;;;;;3.95;2.83;;;;;;;1.05;71.38;93979.94;5060490;28;20207;-79
2023/03/28 05:12:24;;;;;;;3.88;3.53;;;;;;;1.07;71.23;93977.78;5056853;28;20202;-77
2023/03/28 05:14:51;;;;;;;6.15;3.60;;;;;;;1.13;71.40;93983.84;5050034;28;20215;-75
2023/03/28 05:17:17;;;;;;;3.88;3.20;;;;;;;1.34;70.82;93983.31;5056525;28;20293;-78
2023/03/28 05:19:44;;;;;;;4.43;3.47;;;;;;;1.08;71.83;93990.03;5060642;28;20239;-75
2023/03/28 05:22:11;;;;;;;7.13;5.25;;;;;;;1.13;73.19;94002.50;5058339;28;20195;-75
2023/03/28 05:24:38;;;;;;;5.28;4.18;;;;;;;1.02;72.98;93977.81;5066989;28;20260;-77
2023/03/28 05:27:06;;;;;;;6.25;3.92;;;;;;;1.02;73.16;93991.16;5058063;28;20210;-74
2023/03/28 05:29:32;;;;;;;5.97;3.92;;;;;;;1.04;73.65;93992.47;5055477;28;20236;-74
2023/03/28 05:31:59;;;;;;;6.85;4.97;;;;;;;1.08;74.79;94005.25;5053973;28;20208;-74
2023/03/28 05:34:28;;;;;;;7.00;5.45;;;;;;;1.06;74.68;93997.53;5057351;28;20210;-78
2023/03/28 05:36:56;;;;;;;5.13;4.43;;;;;;;0.97;76.55;94010.66;5054905;28;20617;-76
2023/03/28 05:39:22;;;;;;;4.43;3.28;;;;;;;0.91;78.72;94017.13;5050938;28;20290;-75
2023/03/28 05:41:49;;;;;;;6.43;4.60;;;;;;;0.76;78.74;94025.28;5053558;28;20300;-76
2023/03/28 05:44:18;;;;;;;7.40;4.40;;;;;;;0.82;78.73;94034.03;5053123;28;20223;-75
2023/03/28 05:46:44;;;;;;;9.32;4.03;;;;;;;0.81;79.21;94037.78;5062900;28;20199;-74
2023/03/28 05:49:11;;;;;;;6.60;4.47;;;;;;;0.66;80.37;94036.84;5051646;28;20227;-75
2023/03/28 05:51:38;;;;;;;6.47;4.75;;;;;;;0.43;81.45;94013.56;5060473;28;20283;-79
2023/03/28 05:54:05;;;;;;;9.45;4.25;;;;;;;0.52;81.97;94035.91;5068321;28;20245;-77
2023/03/28 05:56:34;;;;;;;6.57;4.95;;;;;;;0.66;82.14;94041.38;5063106;28;20199;-74
2023/03/28 05:59:03;;;;;;;8.50;3.80;;;;;;;0.66;81.66;94023.50;5057180;28;20633;-79
2023/03/28 06:01:33;;;;;;;6.78;5.05;;;;;;;0.73;82.14;94041.03;5053727;28;20204;-75
2023/03/28 06:04:00;;;;;;;7.22;5.40;;;;;;;0.90;81.86;94044.88;5059110;28;20253;-74
2023/03/28 06:06:27;;;;;;;5.93;4.43;;;;;;;0.93;82.07;94057.66;5062890;28;20199;-75
2023/03/28 06:08:54;;;;;;;6.03;4.72;;;;;;;0.83;81.75;94054.25;5058172;28;20708;-77
2023/03/28 06:11:23;;;;;;;5.70;4.10;;;;;;;0.77;79.57;94052.72;5056678;28;20199;-76
2023/03/28 06:13:50;;;;;;;6.53;4.97;;;;;;;0.79;80.05;94055.91;5061577;28;20212;-75
2023/03/28 06:16:17;;;;;;;5.40;4.25;;;;;;;0.78;81.88;94064.97;5063366;28;20590;-74
2023/03/28 06:18:45;;;;;;;7.28;5.00;;;;;;;0.79;82.04;94071.91;5058427;28;20281;-75
2023/03/28 06:21:12;;;;;;;7.85;4.93;;;;;;;0.97;81.12;94055.19;5056505;28;20195;-75
2023/03/28 06:23:38;;;;;;;6.97;5.43;;;;;;;0.86;81.33;94069.69;5070399;28;20280;-76
2023/03/28 06:26:06;;;;;;;6.65;4.15;;;;;;;1.02;79.78;94065.81;5053892;28;20265;-75
2023/03/28 06:28:32;;;;;;;9.52;6.03;;;;;;;1.13;80.17;94082.50;5058963;28;21095;-76
2023/03/28 06:30:59;;;;;;;7.93;5.88;;;;;;;1.19;78.88;94087.53;5053184;28;20298;-74
2023/03/28 06:33:26;;;;;;;5.95;4.72;;;;;;;1.11;76.30;94090.00;5059607;28;20207;-79
2023/03/28 06:35:54;;;;;;;5.45;3.88;;;;;;;1.11;75.99;94074.78;5063727;28;20282;-75
2023/03/28 06:38:21;;;;;;;5.43;4.90;;;;;;;1.27;76.46;94084.22;5059837;28;20207;-76
2023/03/28 06:40:48;;;;;;;6.07;4.85;;;;;;;1.54;75.40;94085.53;5056329;28;20257;-75
2023/03/28 06:43:15;;;;;;;7.50;5.07;;;;;;;1.48;76.11;94094.69;5059934;28;20246;-75
2023/03/28 06:45:41;;;;;;;6.03;4.55;;;;;;;1.47;71.77;94082.44;5063195;28;20662;-77
2023/03/28 06:48:08;;;;;;;5.32;3.33;;;;;;;1.52;72.94;94085.03;5060042;28;20198;-76
2023/03/28 06:50:35;;;;;;;6.28;4.45;;;;;;;1.77;73.87;94098.09;5056219;28;20252;-75
2023/03/28 06:53:03;;;;;;;7.10;4.70;;;;;;;1.63;72.27;94086.53;5059871;28;20200;-76
2023/03/28 06:55:30;;;;;;;2.95;2.10;;;;;;;1.50;71.03;94087.22;5053982;28;20195;-75
2023/03/28 06:57:56;;;;;;;7.15;4.38;;;;;;;1.49;72.38;94094.41;5058576;28;20265;-75
2023/03/28 07:00:23;;;;;;;6.93;4.57;;;;;;;1.76;72.33;94096.50;5057015;28;20215;-72
2023/03/28 07:02:50;;;;;;;5.63;2.47;;;;;;;1.42;71.71;94097.41;5056595;28;20232;-75
2023/03/28 07:05:17;;;;;;;1.67;1.58;;;;;;;1.50;71.90;94103.22;5055891;28;20260;-76
2023/03/28 07:07:43;;;;;;;3.55;2.50;;;;;;;1.55;72.59;94095.13;5057689;28;20203;-76
2023/03/28 07:10:11;;;;;;;2.90;2.42;;;;;;;1.50;73.17;94108.56;5062247;28;20235;-76
2023/03/28 07:12:38;;;;;;;1.60;1.27;;;;;;;1.54;73.25;94110.34;5052659;28;20199;-75
2023/03/28 07:15:06;;;;;;;2.60;1.80;;;;;;;1.73;71.75;94121.09;5058486;28;20215;-83
2023/03/28 07:17:33;;;;;;;1.83;1.58;;;;;;;1.77;71.93;94120.25;5061015;28;20199;-80
2023/03/28 07:20:00;;;;;;;2.67;2.35;;;;;;;1.61;71.59;94123.38;5063224;28;20296;-79
2023/03/28 07:22:27;;;;;;;2.45;1.77;;;;;;;1.90;71.21;94144.66;5060795;28;20241;-78
2023/03/28 07:24:54;;;;;;;2.13;1.50;;;;;;;1.66;69.25;94144.66;5068752;28;20897;-82
2023/03/28 07:27:22;;;;;;;3.22;2.28;;;;;;;1.70;69.30;94145.69;5068779;28;20199;-78
2023/03/28 07:29:49;;;;;;;2.85;1.85;;;;;;;1.69;68.84;94144.88;5061745;28;20227;-76
2023/03/28 07:32:16;;;;;;;2.28;2.08;;;;;;;1.99;67.77;94154.44;5062249;28;20282;-79
2023/03/28 07:34:43;;;;;;;1.92;1.70;;;;;;;2.07;67.54;94150.31;5048499;28;20203;-78
2023/03/28 07:37:10;;;;;;;2.83;1.98;;;;;;;1.98;67.17;94166.19;5049139;28;20204;-77
2023/03/28 07:39:38;;;;;;;2.25;1.67;;;;;;;1.81;67.02;94160.50;5060399;28;20739;-77
2023/03/28 07:42:07;;;;;;;1.75;1.65;;;;;;;1.84;67.69;94157.28;5061498;28;20301;-77
2023/03/28 07:44:35;;;;;;;4.95;2.17;;;;;;;2.14;68.47;94156.91;5052505;28;20245;-74
2023/03/28 07:47:02;;;;;;;1.73;1.23;;;;;;;2.09;67.92;94154.28;5057314;28;20191;-75
2023/03/28 07:49:29;;;;;;;2.47;2.00;;;;;;;2.07;67.08;94150.31;5050670;28;20246;-82
2023/03/28 07:51:56;;;;;;;3.15;1.85;;;;;;;1.83;65.88;94158.34;5061183;28;20207;-77
2023/03/28 07:54:23;;;;;;;2.20;2.00;;;;;;;1.78;66.88;94161.06;5064977;28;20199;-77
2023/03/28 07:56:50;;;;;;;2.05;1.40;;;;;;;1.87;65.52;94159.38;5051386;28;20974;-73
2023/03/28 07:59:17;;;;;;;4.57;2.00;;;;;;;1.94;66.40;94167.81;5067133;28;20209;-75
2023/03/28 08:01:46;;;;;;;3.58;1.98;;;;;;;1.65;66.94;94181.22;5058002;28;20203;-73
2023/03/28 08:04:13;;;;;;;6.72;3.83;;;;;;;1.61;67.33;94163.41;5067854;28;20198;-75
2023/03/28 08:06:40;;;;;;;4.07;3.33;;;;;;;1.61;67.45;94174.88;5053889;28;20207;-80
2023/03/28 08:09:08;;;;;;;5.50;3.85;;;;;;;1.64;68.74;94168.94;5061541;28;20288;-75
2023/03/28 08:11:36;;;;;;;3.95;3.30;;;;;;;1.70;68.79;94172.38;5054512;28;20284;-77
2023/03/28 08:14:04;;;;;;;4.35;3.35;;;;;;;1.66;69.19;94182.03;5056549;28;20685;-74
2023/03/28 08:16:32;;;;;;;7.82;3.85;;;;;;;1.71;69.64;94190.78;5055734;28;20290;-72
2023/03/28 08:19:00;;;;;;;4.20;3.42;;;;;;;1.84;71.00;94205.34;5043610;28;20236;-75
2023/03/28 08:21:29;;;;;;;4.00;3.05;;;;;;;1.67;71.56;94200.44;5033980;28;20207;-75
2023/03/28 08:23:56;;;;;;;4.50;3.30;;;;;;;1.72;71.41;94208.41;5042362;28;20213;-73
2023/03/28 08:26:23;;;;;;;4.22;3.60;;;;;;;1.74;71.47;94216.13;5046851;28;20204;-73
2023/03/28 08:28:53;;;;;;;5.72;4.18;;;;;;;1.67;72.30;94221.00;5036646;28;20220;-73
2023/03/28 08:31:22;;;;;;;4.72;3.38;;;;;;;1.81;72.15;94227.25;5032914;28;20590;-76
2023/03/28 08:33:50;;;;;;;4.88;3.20;;;;;;;1.83;70.75;94222.44;5027876;28;20234;-74
2023/03/28 08:36:19;;;;;;;2.20;1.95;;;;;;;2.00;70.27;94220.13;5032329;28;20750;-74
2023/03/28 08:38:48;;;;;;;2.67;1.98;;;;;;;1.95;69.33;94222.03;5042484;28;20278;-74
2023/03/28 08:41:27;;;;;;;3.97;1.33;;;;;;;2.18;69.57;94220.47;5032305;28;20898;-73
2023/03/28 08:44:18;;;;;;;4.65;2.63;;;;;;;2.37;68.76;94218.63;5032532;28;20208;-75
2023/03/28 08:46:49;;;;;;;1.75;1.40;;;;;;;2.32;69.11;94226.72;5030340;28;20291;-73
2023/03/28 08:49:18;;;;;;;3.45;1.75;;;;;;;2.77;68.59;94228.78;5033947;28;20330;-74
2023/03/28 08:51:52;;;;;;;3.50;1.83;;;;;;;2.46;68.57;94222.28;5037726;28;20659;-75
2023/03/28 08:54:23;;;;;;;2.22;1.83;;;;;;;2.53;68.93;94221.91;5033881;28;20769;-73
2023/03/28 08:56:54;;;;;;;1.15;1.02;;;;;;;2.43;69.58;94228.19;5038389;28;20200;-73
2023/03/28 08:59:25;;;;;;;2.72;1.77;;;;;;;2.20;69.10;94234.31;5036830;28;20203;-76
2023/03/28 09:01:52;;;;;;;1.80;1.50;;;;;;;2.08;68.15;94248.88;5042785;28;20212;-74
2023/03/28 09:04:27;;;;;;;1.83;1.33;;;;;;;2.35;67.95;94226.13;5035806;28;20195;-76
2023/03/28 09:07:03;;;;;;;1.63;1.52;;;;;;;2.27;68.25;94234.78;5038852;28;20261;-74
2023/03/28 09:09:44;;;;;;;2.20;1.55;;;;;;;2.05;68.52;94244.09;5025685;28;20231;-74
2023/03/28 09:12:26;;;;;;;2.30;1.58;;;;;;;2.34;68.50;94246.69;5038139;28;20231;-77
2023/03/28 09:15:12;;;;;;;1.52;1.42;;;;;;;2.45;67.37;94247.41;5032614;28;20208;-74
2023/03/28 09:17:49;;;;;;;2.42;2.00;;;;;;;2.47;66.40;94255.91;5028944;28;20200;-74
2023/03/28 09:20:23;;;;;;;2.78;1.58;;;;;;;2.28;67.52;94258.56;5065765;28;20207;-84
2023/03/28 09:23:07;;;;;;;2.25;1.95;;;;;;;2.12;69.29;94257.13;5053549;28;20198;-76
2023/03/28 09:25:41;;;;;;;3.15;1.85;;;;;;;2.21;68.76;94267.97;5053054;28;20265;-77
2023/03/28 09:28:24;;;;;;;2.53;1.85;;;;;;;2.10;69.34;94273.44;5059573;28;20229;-74
2023/03/28 09:30:52;;;;;;;2.97;1.80;;;;;;;2.23;68.96;94273.81;5059947;28;20230;-75
2023/03/28 09:33:23;;;;;;;1.98;1.45;;;;;;;2.53;67.30;94259.31;5046756;28;20277;-73
2023/03/28 09:35:52;;;;;;;2.92;1.67;;;;;;;2.98;66.30;94268.63;5068796;28;20682;-73
2023/03/28 09:38:24;;;;;;;2.35;1.45;;;;;;;3.03;65.94;94269.34;5047138;28;20281;-74
2023/03/28 09:40:53;;;;;;;3.33;2.05;;;;;;;2.25;66.53;94264.44;5061311;28;20204;-75
2023/03/28 09:43:31;;;;;;;5.90;1.92;;;;;;;2.06;68.65;94272.38;5062372;28;20560;-73
2023/03/28 09:46:01;;;;;;;3.50;2.10;;;;;;;1.92;68.90;94268.78;5065070;28;20186;-79
2023/03/28 09:48:29;;;;;;;2.47;1.42;;;;;;;2.17;69.38;94273.09;5050264;28;20207;-74
2023/03/28 09:50:57;;;;;;;3.92;2.65;;;;;;;2.13;69.33;94267.53;5058149;28;20228;-74
2023/03/28 09:53:27;;;;;;;2.15;1.73;;;;;;;2.40;67.65;94276.84;5063540;28;20203;-73
2023/03/28 09:55:55;;;;;;;3.42;2.55;;;;;;;2.25;67.12;94258.31;5063747;28;20200;-74
2023/03/28 09:58:23;;;;;;;1.85;1.35;;;;;;;1.86;67.94;94277.94;5068128;28;20213;-75
2023/03/28 10:00:52;;;;;;;5.15;2.55;;;;;;;1.88;66.80;94265.13;5069071;28;20280;-75
2023/03/28 10:03:28;;;;;;;1.80;1.50;;;;;;;2.24;65.95;94272.75;5066848;28;20737;-76
2023/03/28 10:05:56;;;;;;;2.38;1.73;;;;;;;2.32;63.89;94280.16;5068404;28;20903;-72
2023/03/28 10:08:28;;;;;;;4.22;1.65;;;;;;;2.42;62.48;94280.84;5056418;28;20203;-75
2023/03/28 10:11:02;;;;;;;1.75;1.55;;;;;;;2.56;62.08;94264.09;5064844;28;20321;-74
2023/03/28 10:13:35;;;;;;;2.65;2.17;;;;;;;2.76;62.13;94264.63;5056011;28;20207;-75
2023/03/28 10:16:02;;;;;;;1.77;1.67;;;;;;;3.21;59.43;94246.34;5063067;28;20205;-77
2023/03/28 10:18:31;;;;;;;1.92;1.70;;;;;;;3.51;58.87;94251.25;5056895;28;20258;-75
2023/03/28 10:21:06;;;;;;;3.75;2.05;;;;;;;3.54;59.75;94252.53;5064092;28;20199;-74
2023/03/28 10:23:35;;;;;;;1.50;1.40;;;;;;;3.43;60.50;94254.56;5057724;28;20992;-74
2023/03/28 10:26:03;;;;;;;2.33;1.77;;;;;;;3.42;60.54;94252.97;5053878;28;20239;-76
2023/03/28 10:28:32;;;;;;;3.97;1.67;;;;;;;3.10;60.21;94255.63;5060595;28;20200;-77
2023/03/28 10:31:01;;;;;;;3.17;1.80;;;;;;;2.79;60.52;94256.03;5053379;28;20258;-77
2023/03/28 10:33:32;;;;;;;2.30;1.38;;;;;;;3.01;59.96;94270.72;5051440;28;20269;-75
2023/03/28 10:36:01;;;;;;;3.10;2.17;;;;;;;3.15;58.48;94255.53;5062751;28;20257;-75
2023/03/28 10:38:36;;;;;;;5.68;1.38;;;;;;;3.35;58.64;94254.44;5061577;28;20199;-75
2023/03/28 10:41:06;;;;;;;3.22;1.58;;;;;;;3.85;58.35;94264.31;5050233;28;20210;-74
2023/03/28 10:43:36;;;;;;;3.10;2.75;;;;;;;3.74;59.14;94256.75;5056327;28;20276;-73
2023/03/28 10:46:08;;;;;;;2.22;1.38;;;;;;;4.09;58.51;94258.84;5056271;28;20206;-73
2023/03/28 10:48:36;;;;;;;3.67;2.13;;;;;;;3.69;59.20;94259.53;5068357;28;20989;-75
2023/03/28 10:51:07;;;;;;;2.97;2.03;;;;;;;3.57;59.87;94273.34;5055567;28;20459;-76
2023/03/28 10:53:52;;;;;;;1.92;1.30;;;;;;;3.35;60.66;94275.84;5055641;28;20230;-73
2023/03/28 10:56:28;;;;;;;3.78;1.83;;;;;;;3.12;61.20;94272.19;5065537;28;20210;-76
2023/03/28 10:59:12;;;;;;;2.97;1.55;;;;;;;3.17;62.35;94269.41;5067666;28;20211;-76
2023/03/28 11:01:50;;;;;;;1.67;1.58;;;;;;;4.00;62.14;94260.59;5052784;28;20984;-73
2023/03/28 11:04:35;;;;;;;2.65;2.15;;;;;;;4.45;58.54;94244.75;5051933;28;20211;-73
2023/03/28 11:07:08;;;;;;;2.97;2.20;;;;;;;4.19;59.13;94258.63;5049711;28;20638;-74
2023/03/28 11:09:46;;;;;;;2.78;1.80;;;;;;;3.67;58.41;94262.50;5062697;28;20244;-76
2023/03/28 11:12:26;;;;;;;1.98;1.75;;;;;;;4.03;58.56;94254.63;5057144;28;20199;-77
2023/03/28 11:15:03;;;;;;;3.95;2.20;;;;;;;3.63;60.45;94285.59;5054873;28;20260;-75
2023/03/28 11:17:39;;;;;;;2.30;1.73;;;;;;;3.67;58.74;94272.41;5054760;28;20206;-82
2023/03/28 11:20:29;;;;;;;4.70;1.90;;;;;;;3.44;58.06;94279.44;5049531;28;20199;-74
2023/03/28 11:23:19;;;;;;;1.30;1.20;;;;;;;3.40;59.89;94279.25;5052450;28;20195;-74
2023/03/28 11:25:55;;;;;;;3.08;1.70;;;;;;;3.75;59.32;94263.69;5059715;28;20191;-74
2023/03/28 11:28:31;;;;;;;3.05;2.13;;;;;;;3.64;57.49;94279.16;5057491;28;20199;-78
2023/03/28 11:31:00;;;;;;;1.88;1.40;;;;;;;3.48;59.69;94275.91;5055886;28;20894;-76
2023/03/28 11:33:32;;;;;;;2.20;1.40;;;;;;;3.48;57.77;94254.50;5053826;28;20245;-75
2023/03/28 11:36:04;;;;;;;2.35;1.65;;;;;;;3.47;57.04;94268.16;5051805;28;21118;-76
2023/03/28 11:38:33;;;;;;;2.83;1.85;;;;;;;3.51;56.86;94267.31;5054565;28;20206;-77
2023/03/28 11:41:04;;;;;;;2.80;1.73;;;;;;;3.73;58.16;94260.50;5055721;28;20225;-78
2023/03/28 11:43:35;;;;;;;2.95;1.83;;;;;;;4.21;56.08;94272.53;5050852;28;20192;-80
2023/03/28 11:46:07;;;;;;;1.95;1.13;;;;;;;3.82;55.48;94266.81;5056139;28;20678;-76
2023/03/28 11:48:42;;;;;;;2.22;1.55;;;;;;;3.70;54.03;94269.94;5054319;28;20195;-73
2023/03/28 11:51:14;;;;;;;3.30;1.73;;;;;;;3.85;54.73;94280.41;5061681;28;20947;-78
2023/03/28 11:53:47;;;;;;;1.45;1.35;;;;;;;3.92;54.06;94282.72;5057221;28;20203;-77
2023/03/28 11:56:40;;;;;;;2.17;1.48;;;;;;;3.96;54.14;94275.69;5057720;28;21109;-73